createdAt,value
2018-06-10T00:00:51.349Z,0.00
2018-06-10T00:02:44.937Z,0.00
2018-06-10T00:03:44.913Z,0.00
2018-06-10T00:05:37.953Z,0.00
2018-06-10T00:06:37.966Z,0.00
2018-06-10T00:08:30.979Z,0.00
2018-06-10T00:09:31.009Z,0.00
2018-06-10T00:11:24.092Z,0.00
2018-06-10T00:12:24.065Z,0.00
2018-06-10T00:14:17.102Z,0.00
2018-06-10T00:15:17.126Z,0.00
2018-06-10T00:17:10.172Z,0.00
2018-06-10T00:18:10.181Z,0.00
2018-06-10T00:20:03.226Z,0.00
2018-06-10T00:21:03.236Z,0.00
2018-06-10T00:22:56.672Z,0.00
2018-06-10T00:23:56.702Z,0.00
2018-06-10T00:25:49.652Z,0.00
2018-06-10T00:26:49.665Z,0.00
2018-06-10T00:28:42.756Z,0.00
2018-06-10T00:29:42.783Z,0.00
2018-06-10T00:31:35.844Z,0.00
2018-06-10T00:32:35.841Z,0.00
2018-06-10T00:34:28.805Z,0.00
2018-06-10T00:35:28.825Z,0.00
2018-06-10T00:37:21.873Z,0.00
2018-06-10T00:38:21.881Z,0.00
2018-06-10T00:40:14.906Z,0.00
2018-06-10T00:41:14.936Z,0.00
2018-06-10T00:43:07.984Z,0.00
2018-06-10T00:44:07.999Z,0.00
2018-06-10T00:46:01.039Z,0.00
2018-06-10T00:47:01.055Z,0.00
2018-06-10T00:48:54.484Z,0.00
2018-06-10T00:49:54.515Z,0.00
2018-06-10T00:51:47.976Z,0.00
2018-06-10T00:52:47.980Z,0.00
2018-06-10T00:54:41.015Z,0.00
2018-06-10T00:55:41.039Z,0.00
2018-06-10T00:57:34.086Z,0.00
2018-06-10T00:58:34.098Z,0.00
2018-06-10T01:00:27.258Z,0.00
2018-06-10T01:01:27.168Z,0.00
2018-06-10T01:03:20.196Z,0.00
2018-06-10T01:04:20.205Z,0.00
2018-06-10T01:06:14.759Z,0.00
2018-06-10T01:07:14.762Z,0.00
2018-06-10T01:09:07.763Z,0.00
2018-06-10T01:10:07.749Z,0.00
2018-06-10T01:12:00.801Z,0.00
2018-06-10T01:13:00.811Z,0.00
2018-06-10T01:14:53.842Z,0.00
2018-06-10T01:15:53.867Z,0.00
2018-06-10T01:17:46.911Z,0.00
2018-06-10T01:18:46.920Z,0.00
2018-06-10T01:20:39.951Z,0.00
2018-06-10T01:21:39.978Z,0.00
2018-06-10T01:23:33.024Z,0.00
2018-06-10T01:24:33.110Z,0.00
2018-06-10T01:26:29.032Z,0.00
2018-06-10T01:27:29.060Z,0.00
2018-06-10T01:29:22.108Z,0.00
2018-06-10T01:30:22.117Z,0.00
2018-06-10T01:32:15.164Z,0.00
2018-06-10T01:33:15.173Z,0.00
2018-06-10T01:35:08.200Z,0.00
2018-06-10T01:36:08.229Z,0.00
2018-06-10T01:38:01.282Z,0.00
2018-06-10T01:39:01.311Z,0.00
2018-06-10T01:40:54.314Z,0.00
2018-06-10T01:41:54.341Z,0.00
2018-06-10T01:43:47.288Z,0.00
2018-06-10T01:44:47.330Z,0.00
2018-06-10T01:46:41.757Z,0.00
2018-06-10T01:47:41.786Z,0.00
2018-06-10T01:49:34.840Z,0.00
2018-06-10T01:50:34.846Z,0.00
2018-06-10T01:52:27.894Z,0.00
2018-06-10T01:53:27.902Z,0.00
2018-06-10T01:55:20.931Z,0.00
2018-06-10T01:56:20.961Z,0.00
2018-06-10T01:58:14.007Z,0.00
2018-06-10T01:59:14.014Z,0.00
2018-06-10T02:01:07.132Z,0.00
2018-06-10T02:02:07.073Z,0.00
2018-06-10T02:04:00.118Z,0.00
2018-06-10T02:05:00.205Z,0.00
2018-06-10T02:06:53.569Z,0.00
2018-06-10T02:07:53.597Z,0.00
2018-06-10T02:09:46.538Z,0.00
2018-06-10T02:10:46.542Z,0.00
2018-06-10T02:12:39.466Z,0.00
2018-06-10T02:13:39.495Z,0.00
2018-06-10T02:15:32.445Z,0.00
2018-06-10T02:16:32.454Z,0.00
2018-06-10T02:18:25.503Z,0.00
2018-06-10T02:19:25.511Z,0.00
2018-06-10T02:21:18.540Z,0.00
2018-06-10T02:22:18.567Z,0.00
2018-06-10T02:24:11.614Z,0.00
2018-06-10T02:25:11.622Z,0.00
2018-06-10T02:27:04.577Z,0.00
2018-06-10T02:28:04.604Z,0.00
2018-06-10T02:29:57.625Z,0.00
2018-06-10T02:30:57.633Z,0.00
2018-06-10T02:32:50.663Z,0.00
2018-06-10T02:33:50.787Z,0.00
2018-06-10T02:35:43.739Z,0.00
2018-06-10T02:36:43.756Z,0.00
2018-06-10T02:38:36.802Z,0.00
2018-06-10T02:39:36.804Z,0.00
2018-06-10T02:41:29.728Z,0.00
2018-06-10T02:42:29.756Z,0.00
2018-06-10T02:44:22.705Z,0.00
2018-06-10T02:45:22.715Z,0.00
2018-06-10T02:47:15.635Z,4.00
2018-06-10T02:48:15.663Z,4.00
2018-06-10T02:50:08.611Z,0.00
2018-06-10T02:51:08.615Z,4.00
2018-06-10T02:53:01.540Z,4.00
2018-06-10T02:54:01.570Z,8.00
2018-06-10T02:55:54.517Z,8.00
2018-06-10T02:56:54.517Z,8.00
2018-06-10T02:58:47.934Z,12.00
2018-06-10T02:59:47.961Z,16.00
2018-06-10T03:01:41.401Z,20.00
2018-06-10T03:02:41.408Z,20.00
2018-06-10T03:04:34.349Z,24.00
2018-06-10T03:05:34.355Z,32.00
2018-06-10T03:07:27.281Z,32.00
2018-06-10T03:08:27.308Z,36.00
2018-06-10T03:10:20.258Z,36.00
2018-06-10T03:11:20.261Z,40.00
2018-06-10T03:13:13.188Z,44.00
2018-06-10T03:14:13.219Z,44.00
2018-06-10T03:16:06.167Z,48.00
2018-06-10T03:17:06.170Z,52.00
2018-06-10T03:18:59.093Z,56.00
2018-06-10T03:19:59.122Z,52.00
2018-06-10T03:21:52.069Z,56.00
2018-06-10T03:22:52.076Z,56.00
2018-06-10T03:24:44.998Z,60.00
2018-06-10T03:25:45.028Z,64.00
2018-06-10T03:27:37.973Z,76.00
2018-06-10T03:28:37.976Z,80.00
2018-06-10T03:30:30.927Z,88.00
2018-06-10T03:31:30.930Z,92.00
2018-06-10T03:33:23.851Z,104.00
2018-06-10T03:34:23.878Z,104.00
2018-06-10T03:36:16.823Z,116.00
2018-06-10T03:37:16.832Z,120.00
2018-06-10T03:39:09.753Z,128.00
2018-06-10T03:40:09.782Z,128.00
2018-06-10T03:42:02.727Z,136.00
2018-06-10T03:43:02.732Z,132.00
2018-06-10T03:44:55.652Z,136.00
2018-06-10T03:45:55.685Z,144.00
2018-06-10T03:47:48.628Z,148.00
2018-06-10T03:48:48.633Z,156.00
2018-06-10T03:50:41.551Z,160.00
2018-06-10T03:51:41.578Z,164.00
2018-06-10T03:53:34.529Z,176.00
2018-06-10T03:54:34.527Z,180.00
2018-06-10T03:56:27.960Z,200.00
2018-06-10T03:57:27.969Z,208.00
2018-06-10T03:59:20.893Z,228.00
2018-06-10T04:00:20.927Z,244.00
2018-06-10T04:02:13.865Z,272.00
2018-06-10T04:03:13.872Z,284.00
2018-06-10T04:05:07.290Z,320.00
2018-06-10T04:06:07.319Z,344.00
2018-06-10T04:08:00.254Z,400.00
2018-06-10T04:09:00.260Z,432.00
2018-06-10T04:10:53.676Z,484.00
2018-06-10T04:11:53.702Z,508.00
2018-06-10T04:13:46.647Z,552.00
2018-06-10T04:14:46.708Z,580.00
2018-06-10T04:16:39.601Z,632.00
2018-06-10T04:17:39.596Z,664.00
2018-06-10T04:19:32.521Z,720.00
2018-06-10T04:20:32.545Z,748.00
2018-06-10T04:22:25.493Z,804.00
2018-06-10T04:23:25.493Z,840.00
2018-06-10T04:25:18.428Z,912.00
2018-06-10T04:26:18.459Z,952.00
2018-06-10T04:28:11.396Z,1016.00
2018-06-10T04:29:11.404Z,1044.00
2018-06-10T04:31:04.324Z,1088.00
2018-06-10T04:32:04.349Z,1100.00
2018-06-10T04:33:57.295Z,1120.00
2018-06-10T04:34:57.305Z,1120.00
2018-06-10T04:36:50.218Z,1128.00
2018-06-10T04:37:50.245Z,1128.00
2018-06-10T04:39:43.184Z,1124.00
2018-06-10T04:40:43.193Z,1120.00
2018-06-10T04:42:36.140Z,1132.00
2018-06-10T04:43:36.147Z,1168.00
2018-06-10T04:45:29.076Z,1216.00
2018-06-10T04:46:29.100Z,1236.00
2018-06-10T04:48:22.058Z,1284.00
2018-06-10T04:49:22.064Z,1296.00
2018-06-10T04:51:14.986Z,1308.00
2018-06-10T04:52:15.010Z,1312.00
2018-06-10T04:54:07.948Z,1336.00
2018-06-10T04:55:07.960Z,1352.00
2018-06-10T04:57:02.379Z,1392.00
2018-06-10T04:58:02.406Z,1412.00
2018-06-10T04:59:55.344Z,1472.00
2018-06-10T05:00:55.351Z,1508.00
2018-06-10T05:02:48.271Z,1576.00
2018-06-10T05:03:48.298Z,1604.00
2018-06-10T05:05:41.236Z,1672.00
2018-06-10T05:06:41.248Z,1704.00
2018-06-10T05:08:34.183Z,1748.00
2018-06-10T05:09:34.191Z,1760.00
2018-06-10T05:11:27.115Z,1740.00
2018-06-10T05:12:27.140Z,1716.00
2018-06-10T05:14:20.080Z,1664.00
2018-06-10T05:15:20.089Z,1648.00
2018-06-10T05:17:13.008Z,1624.00
2018-06-10T05:18:13.040Z,1636.00
2018-06-10T05:20:06.015Z,1680.00
2018-06-10T05:21:05.985Z,1720.00
2018-06-10T05:22:58.901Z,1824.00
2018-06-10T05:23:58.928Z,1880.00
2018-06-10T05:25:51.872Z,2004.00
2018-06-10T05:26:51.878Z,2080.00
2018-06-10T05:28:44.825Z,2232.00
2018-06-10T05:29:44.828Z,2316.00
2018-06-10T05:31:37.751Z,2452.00
2018-06-10T05:32:37.779Z,2496.00
2018-06-10T05:34:30.725Z,2528.00
2018-06-10T05:35:30.733Z,2536.00
2018-06-10T05:37:23.657Z,2508.00
2018-06-10T05:38:23.685Z,2512.00
2018-06-10T05:40:16.634Z,2604.00
2018-06-10T05:41:16.641Z,2660.00
2018-06-10T05:43:10.061Z,2732.00
2018-06-10T05:44:10.088Z,2728.00
2018-06-10T05:46:03.040Z,2700.00
2018-06-10T05:47:03.039Z,2680.00
2018-06-10T05:48:55.998Z,2648.00
2018-06-10T05:49:55.991Z,2684.00
2018-06-10T05:51:48.914Z,2764.00
2018-06-10T05:52:48.941Z,2832.00
2018-06-10T05:54:41.884Z,2980.00
2018-06-10T05:55:41.888Z,3060.00
2018-06-10T05:57:34.814Z,3232.00
2018-06-10T05:58:34.841Z,3288.00
2018-06-10T06:00:27.782Z,3396.00
2018-06-10T06:01:27.792Z,3472.00
2018-06-10T06:03:20.709Z,3644.00
2018-06-10T06:04:20.739Z,3764.00
2018-06-10T06:06:13.715Z,3936.00
2018-06-10T06:07:13.689Z,4016.00
2018-06-10T06:09:06.607Z,4120.00
2018-06-10T06:10:06.636Z,4160.00
2018-06-10T06:11:59.576Z,4272.00
2018-06-10T06:12:59.583Z,4344.00
2018-06-10T06:14:52.524Z,4440.00
2018-06-10T06:15:52.531Z,4476.00
2018-06-10T06:17:45.454Z,4452.00
2018-06-10T06:18:45.482Z,4408.00
2018-06-10T06:20:38.432Z,4320.00
2018-06-10T06:21:38.438Z,4280.00
2018-06-10T06:23:31.357Z,4288.00
2018-06-10T06:24:31.384Z,4360.00
2018-06-10T06:26:24.332Z,4512.00
2018-06-10T06:27:24.359Z,4652.00
2018-06-10T06:29:17.261Z,5036.00
2018-06-10T06:30:17.288Z,5296.00
2018-06-10T06:32:10.235Z,5744.00
2018-06-10T06:33:10.279Z,5860.00
2018-06-10T06:35:03.179Z,5716.00
2018-06-10T06:36:03.184Z,5532.00
2018-06-10T06:37:56.107Z,5156.00
2018-06-10T06:38:56.132Z,4988.00
2018-06-10T06:40:49.089Z,4852.00
2018-06-10T06:41:49.099Z,4744.00
2018-06-10T06:43:42.020Z,4584.00
2018-06-10T06:44:42.047Z,4516.00
2018-06-10T06:46:37.984Z,4340.00
2018-06-10T06:47:37.995Z,4332.00
2018-06-10T06:49:30.916Z,4300.00
2018-06-10T06:50:30.945Z,4280.00
2018-06-10T06:52:23.887Z,4308.00
2018-06-10T06:53:23.893Z,4360.00
2018-06-10T06:55:16.842Z,4540.00
2018-06-10T06:56:16.851Z,4664.00
2018-06-10T06:58:09.773Z,4916.00
2018-06-10T06:59:09.802Z,5064.00
2018-06-10T07:01:03.236Z,5296.00
2018-06-10T07:02:03.245Z,5396.00
2018-06-10T07:03:56.172Z,5632.00
2018-06-10T07:04:56.196Z,5796.00
2018-06-10T07:06:49.144Z,6124.00
2018-06-10T07:07:49.150Z,6280.00
2018-06-10T07:09:42.077Z,6572.00
2018-06-10T07:10:42.104Z,6720.00
2018-06-10T07:12:35.053Z,7028.00
2018-06-10T07:13:35.059Z,7184.00
2018-06-10T07:15:27.986Z,7464.00
2018-06-10T07:16:28.024Z,7640.00
2018-06-10T07:18:20.959Z,7988.00
2018-06-10T07:19:20.967Z,8236.00
2018-06-10T07:21:13.915Z,9152.00
2018-06-10T07:22:13.919Z,9524.00
2018-06-10T07:24:06.847Z,10280.00
2018-06-10T07:25:06.872Z,10792.00
2018-06-10T07:26:59.821Z,11260.00
2018-06-10T07:27:59.828Z,11208.00
2018-06-10T07:29:52.752Z,10868.00
2018-06-10T07:30:52.782Z,10772.00
2018-06-10T07:32:45.731Z,10984.00
2018-06-10T07:33:45.741Z,11284.00
2018-06-10T07:35:38.665Z,11596.00
2018-06-10T07:36:38.693Z,11888.00
2018-06-10T07:38:31.636Z,11132.00
2018-06-10T07:39:31.646Z,10820.00
2018-06-10T07:41:24.604Z,11320.00
2018-06-10T07:42:24.600Z,11400.00
2018-06-10T07:44:17.524Z,11404.00
2018-06-10T07:45:17.552Z,11576.00
2018-06-10T07:47:10.493Z,12352.00
2018-06-10T07:48:10.502Z,12744.00
2018-06-10T07:50:03.433Z,13316.00
2018-06-10T07:51:03.456Z,13560.00
2018-06-10T07:52:56.399Z,13756.00
2018-06-10T07:53:56.410Z,13796.00
2018-06-10T07:55:49.336Z,14016.00
2018-06-10T07:56:49.365Z,14116.00
2018-06-10T07:58:42.313Z,14420.00
2018-06-10T07:59:42.320Z,14576.00
2018-06-10T08:01:35.248Z,15456.00
2018-06-10T08:02:35.278Z,16076.00
2018-06-10T08:04:28.223Z,17216.00
2018-06-10T08:05:28.295Z,17344.00
2018-06-10T08:07:21.178Z,16072.00
2018-06-10T08:08:21.186Z,15180.00
2018-06-10T08:10:15.609Z,14588.00
2018-06-10T08:11:15.638Z,15000.00
2018-06-10T08:13:08.586Z,15288.00
2018-06-10T08:14:08.591Z,15148.00
2018-06-10T08:16:01.522Z,14172.00
2018-06-10T08:17:01.548Z,13600.00
2018-06-10T08:18:54.500Z,13164.00
2018-06-10T08:19:54.512Z,13468.00
2018-06-10T08:21:47.946Z,13292.00
2018-06-10T08:22:47.971Z,12736.00
2018-06-10T08:24:40.922Z,11540.00
2018-06-10T08:25:40.933Z,11292.00
2018-06-10T08:27:34.376Z,11132.00
2018-06-10T08:28:34.387Z,11096.00
2018-06-10T08:30:27.315Z,11196.00
2018-06-10T08:31:27.345Z,11228.00
2018-06-10T08:33:20.297Z,11376.00
2018-06-10T08:34:20.305Z,11728.00
2018-06-10T08:36:13.251Z,12640.00
2018-06-10T08:37:13.284Z,13036.00
2018-06-10T08:39:06.233Z,13724.00
2018-06-10T08:40:06.239Z,14052.00
2018-06-10T08:41:59.169Z,14464.00
2018-06-10T08:42:59.203Z,14580.00
2018-06-10T08:44:52.640Z,14836.00
2018-06-10T08:45:52.653Z,14996.00
2018-06-10T08:47:45.602Z,15476.00
2018-06-10T08:48:45.630Z,15632.00
2018-06-10T08:50:38.609Z,15604.00
2018-06-10T08:51:38.589Z,15844.00
2018-06-10T08:53:31.557Z,16488.00
2018-06-10T08:54:31.558Z,16888.00
2018-06-10T08:56:24.485Z,17792.00
2018-06-10T08:57:24.515Z,18240.00
2018-06-10T08:59:17.468Z,17632.00
2018-06-10T09:00:17.478Z,17696.00
2018-06-10T09:02:10.405Z,18048.00
2018-06-10T09:03:10.437Z,18144.00
2018-06-10T09:05:03.390Z,19392.00
2018-06-10T09:06:03.399Z,19840.00
2018-06-10T09:07:56.824Z,20448.00
2018-06-10T09:08:56.863Z,20544.00
2018-06-10T09:10:49.809Z,20480.00
2018-06-10T09:11:49.817Z,21056.00
2018-06-10T09:13:42.749Z,21568.00
2018-06-10T09:14:42.817Z,22016.00
2018-06-10T09:16:35.735Z,22080.00
2018-06-10T09:17:35.747Z,21600.00
2018-06-10T09:19:29.198Z,22176.00
2018-06-10T09:20:29.210Z,22368.00
2018-06-10T09:22:22.252Z,20672.00
2018-06-10T09:23:22.261Z,20640.00
2018-06-10T09:25:15.219Z,22208.00
2018-06-10T09:26:15.260Z,20992.00
2018-06-10T09:28:08.240Z,19488.00
2018-06-10T09:29:08.270Z,20064.00
2018-06-10T09:31:01.316Z,17056.00
2018-06-10T09:32:01.396Z,16192.00
2018-06-10T09:33:54.352Z,15212.00
2018-06-10T09:34:54.384Z,15368.00
2018-06-10T09:36:47.843Z,14852.00
2018-06-10T09:37:47.855Z,14564.00
2018-06-10T09:39:42.283Z,13760.00
2018-06-10T09:40:42.316Z,13472.00
2018-06-10T09:42:35.269Z,13600.00
2018-06-10T09:43:35.289Z,13788.00
2018-06-10T09:45:28.247Z,13980.00
2018-06-10T09:46:28.255Z,14024.00
2018-06-10T09:48:21.341Z,13996.00
2018-06-10T09:49:21.372Z,13848.00
2018-06-10T09:51:14.325Z,13384.00
2018-06-10T09:52:14.336Z,13112.00
2018-06-10T09:54:07.793Z,12928.00
2018-06-10T09:55:07.822Z,12916.00
2018-06-10T09:57:00.746Z,12900.00
2018-06-10T09:58:00.764Z,12860.00
2018-06-10T09:59:54.281Z,12680.00
2018-06-10T10:00:54.311Z,12588.00
2018-06-10T10:02:47.329Z,12536.00
2018-06-10T10:03:47.274Z,12752.00
2018-06-10T10:05:41.335Z,13140.00
2018-06-10T10:06:41.237Z,13356.00
2018-06-10T10:08:34.207Z,13560.00
2018-06-10T10:09:34.198Z,13852.00
2018-06-10T10:11:27.276Z,12976.00
2018-06-10T10:12:27.156Z,12464.00
2018-06-10T10:14:20.677Z,12116.00
2018-06-10T10:15:20.666Z,11900.00
2018-06-10T10:17:13.619Z,13092.00
2018-06-10T10:18:13.633Z,13052.00
2018-06-10T10:20:07.616Z,14116.00
2018-06-10T10:21:07.579Z,14312.00
2018-06-10T10:23:01.034Z,14088.00
2018-06-10T10:24:01.483Z,13780.00
2018-06-10T10:25:53.976Z,15396.00
2018-06-10T10:26:54.008Z,16444.00
2018-06-10T10:28:46.960Z,18144.00
2018-06-10T10:29:46.967Z,16756.00
2018-06-10T10:31:40.414Z,14176.00
2018-06-10T10:32:40.425Z,13952.00
2018-06-10T10:34:33.353Z,14648.00
2018-06-10T10:35:33.385Z,14256.00
2018-06-10T10:37:26.829Z,15928.00
2018-06-10T10:38:26.891Z,16200.00
2018-06-10T10:40:19.770Z,14792.00
2018-06-10T10:41:19.802Z,13724.00
2018-06-10T10:43:12.754Z,11588.00
2018-06-10T10:44:12.766Z,10992.00
2018-06-10T10:46:05.697Z,9984.00
2018-06-10T10:47:05.729Z,9272.00
2018-06-10T10:48:58.727Z,10084.00
2018-06-10T10:49:58.692Z,10780.00
2018-06-10T10:51:51.660Z,12236.00
2018-06-10T10:52:51.659Z,13332.00
2018-06-10T10:54:44.583Z,14396.00
2018-06-10T10:55:44.623Z,14452.00
2018-06-10T10:57:37.569Z,15128.00
2018-06-10T10:58:37.577Z,14760.00
2018-06-10T11:00:30.512Z,13872.00
2018-06-10T11:01:30.543Z,12784.00
2018-06-10T11:03:23.497Z,12280.00
2018-06-10T11:04:23.504Z,12408.00
2018-06-10T11:06:16.435Z,12656.00
2018-06-10T11:07:16.465Z,13560.00
2018-06-10T11:09:09.426Z,14804.00
2018-06-10T11:10:09.433Z,15380.00
2018-06-10T11:12:02.396Z,15388.00
2018-06-10T11:13:02.398Z,15184.00
2018-06-10T11:14:55.344Z,16444.00
2018-06-10T11:15:55.364Z,17568.00
2018-06-10T11:17:48.316Z,17280.00
2018-06-10T11:18:48.333Z,17248.00
2018-06-10T11:20:41.321Z,17696.00
2018-06-10T11:21:41.346Z,17248.00
2018-06-10T11:23:34.363Z,15340.00
2018-06-10T11:24:34.351Z,14268.00
2018-06-10T11:26:27.282Z,13240.00
2018-06-10T11:27:27.316Z,12628.00
2018-06-10T11:29:20.266Z,11908.00
2018-06-10T11:30:20.278Z,12112.00
2018-06-10T11:32:13.204Z,13532.00
2018-06-10T11:33:13.234Z,13764.00
2018-06-10T11:35:06.680Z,13484.00
2018-06-10T11:36:06.693Z,13540.00
2018-06-10T11:37:59.644Z,14276.00
2018-06-10T11:38:59.654Z,14724.00
2018-06-10T11:40:52.585Z,15592.00
2018-06-10T11:41:52.616Z,15392.00
2018-06-10T11:43:46.067Z,14520.00
2018-06-10T11:44:46.083Z,14076.00
2018-06-10T11:46:39.009Z,13796.00
2018-06-10T11:47:39.039Z,12596.00
2018-06-10T11:49:32.002Z,11008.00
2018-06-10T11:50:31.999Z,10816.00
2018-06-10T11:52:24.929Z,11240.00
2018-06-10T11:53:24.959Z,9796.00
2018-06-10T11:55:17.913Z,8312.00
2018-06-10T11:56:17.941Z,8232.00
2018-06-10T11:58:10.954Z,7692.00
2018-06-10T11:59:10.890Z,6856.00
2018-06-10T12:01:03.816Z,6396.00
2018-06-10T12:02:03.849Z,6612.00
2018-06-10T12:03:57.290Z,6908.00
2018-06-10T12:04:57.300Z,6872.00
2018-06-10T12:06:50.232Z,6288.00
2018-06-10T12:07:50.285Z,6464.00
2018-06-10T12:09:43.211Z,7960.00
2018-06-10T12:10:43.233Z,8488.00
2018-06-10T12:12:36.154Z,7856.00
2018-06-10T12:13:36.185Z,7352.00
2018-06-10T12:15:29.137Z,7132.00
2018-06-10T12:16:29.143Z,7256.00
2018-06-10T12:18:22.072Z,8148.00
2018-06-10T12:19:22.102Z,8524.00
2018-06-10T12:21:16.546Z,9488.00
2018-06-10T12:22:16.559Z,9740.00
2018-06-10T12:24:10.045Z,8732.00
2018-06-10T12:25:10.011Z,8304.00
2018-06-10T12:27:02.940Z,8212.00
2018-06-10T12:28:02.971Z,8068.00
2018-06-10T12:29:55.923Z,7720.00
2018-06-10T12:30:55.927Z,7192.00
2018-06-10T12:32:48.858Z,6224.00
2018-06-10T12:33:48.892Z,6100.00
2018-06-10T12:35:41.843Z,6072.00
2018-06-10T12:36:41.848Z,6064.00
2018-06-10T12:38:34.775Z,5980.00
2018-06-10T12:39:34.807Z,5884.00
2018-06-10T12:41:27.824Z,5840.00
2018-06-10T12:42:27.769Z,5784.00
2018-06-10T12:44:21.691Z,5764.00
2018-06-10T12:45:21.724Z,5732.00
2018-06-10T12:47:14.717Z,5768.00
2018-06-10T12:48:14.747Z,5516.00
2018-06-10T12:50:07.680Z,5328.00
2018-06-10T12:51:07.683Z,5268.00
2018-06-10T12:53:00.722Z,5420.00
2018-06-10T12:54:00.638Z,5496.00
2018-06-10T12:55:53.590Z,5564.00
2018-06-10T12:56:53.606Z,5672.00
2018-06-10T12:58:46.588Z,6028.00
2018-06-10T12:59:46.618Z,5796.00
2018-06-10T13:01:39.575Z,5988.00
2018-06-10T13:02:39.605Z,6380.00
2018-06-10T13:04:33.501Z,7252.00
2018-06-10T13:05:33.534Z,7788.00
2018-06-10T13:07:26.474Z,8852.00
2018-06-10T13:08:26.486Z,9760.00
2018-06-10T13:10:19.445Z,9676.00
2018-06-10T13:11:19.447Z,9152.00
2018-06-10T13:13:12.376Z,8316.00
2018-06-10T13:14:12.406Z,9376.00
2018-06-10T13:16:05.359Z,9072.00
2018-06-10T13:17:05.366Z,9024.00
2018-06-10T13:18:58.295Z,9124.00
2018-06-10T13:19:58.327Z,8244.00
2018-06-10T13:21:51.277Z,8804.00
2018-06-10T13:22:51.285Z,8600.00
2018-06-10T13:24:44.211Z,7708.00
2018-06-10T13:25:44.243Z,7968.00
2018-06-10T13:27:38.745Z,7856.00
2018-06-10T13:28:38.721Z,6932.00
2018-06-10T13:30:31.630Z,6960.00
2018-06-10T13:31:31.661Z,6908.00
2018-06-10T13:33:24.606Z,6780.00
2018-06-10T13:34:24.617Z,6536.00
2018-06-10T13:36:17.566Z,6988.00
2018-06-10T13:37:17.576Z,6852.00
2018-06-10T13:39:11.060Z,6428.00
2018-06-10T13:40:11.029Z,6288.00
2018-06-10T13:42:04.009Z,5552.00
2018-06-10T13:43:04.007Z,5576.00
2018-06-10T13:44:56.934Z,5348.00
2018-06-10T13:45:56.999Z,5384.00
2018-06-10T13:47:49.917Z,5484.00
2018-06-10T13:48:49.921Z,5560.00
2018-06-10T13:50:42.851Z,5920.00
2018-06-10T13:51:42.886Z,6068.00
2018-06-10T13:53:35.832Z,6488.00
2018-06-10T13:54:35.840Z,6572.00
2018-06-10T13:56:29.259Z,7372.00
2018-06-10T13:57:29.290Z,7712.00
2018-06-10T13:59:22.296Z,8944.00
2018-06-10T14:00:22.273Z,9620.00
2018-06-10T14:02:15.219Z,8780.00
2018-06-10T14:03:15.225Z,8824.00
2018-06-10T14:05:08.164Z,8560.00
2018-06-10T14:06:08.244Z,8636.00
2018-06-10T14:08:01.142Z,9288.00
2018-06-10T14:09:01.153Z,9692.00
2018-06-10T14:10:54.080Z,10288.00
2018-06-10T14:11:54.110Z,10492.00
2018-06-10T14:13:47.163Z,10704.00
2018-06-10T14:14:47.148Z,10536.00
2018-06-10T14:16:40.116Z,9712.00
2018-06-10T14:17:40.144Z,9328.00
2018-06-10T14:19:33.190Z,9216.00
2018-06-10T14:20:33.204Z,9596.00
2018-06-10T14:22:26.228Z,8592.00
2018-06-10T14:23:26.259Z,7596.00
2018-06-10T14:25:19.306Z,7204.00
2018-06-10T14:26:19.314Z,7792.00
2018-06-10T14:28:12.362Z,9940.00
2018-06-10T14:29:12.374Z,9892.00
2018-06-10T14:31:05.402Z,9628.00
2018-06-10T14:32:05.429Z,9260.00
2018-06-10T14:33:58.472Z,10372.00
2018-06-10T14:34:58.486Z,11296.00
2018-06-10T14:36:51.511Z,10476.00
2018-06-10T14:37:51.564Z,9744.00
2018-06-10T14:39:44.584Z,10956.00
2018-06-10T14:40:44.598Z,11312.00
2018-06-10T14:42:37.622Z,9736.00
2018-06-10T14:43:37.659Z,9284.00
2018-06-10T14:45:30.702Z,9992.00
2018-06-10T14:46:30.711Z,10244.00
2018-06-10T14:48:23.734Z,10460.00
2018-06-10T14:49:23.767Z,10800.00
2018-06-10T14:51:17.225Z,9624.00
2018-06-10T14:52:17.235Z,9572.00
2018-06-10T14:54:10.277Z,9136.00
2018-06-10T14:55:10.294Z,9088.00
2018-06-10T14:57:03.724Z,8900.00
2018-06-10T14:58:03.756Z,8696.00
2018-06-10T14:59:57.209Z,9132.00
2018-06-10T15:00:57.221Z,9016.00
2018-06-10T15:02:50.248Z,8660.00
2018-06-10T15:03:50.278Z,8568.00
2018-06-10T15:05:43.320Z,8808.00
2018-06-10T15:06:43.335Z,8716.00
2018-06-10T15:08:36.360Z,9440.00
2018-06-10T15:09:36.394Z,10100.00
2018-06-10T15:11:29.436Z,10632.00
2018-06-10T15:12:29.457Z,10900.00
2018-06-10T15:14:22.492Z,10088.00
2018-06-10T15:15:22.504Z,9792.00
2018-06-10T15:17:15.458Z,10772.00
2018-06-10T15:18:15.473Z,10728.00
2018-06-10T15:20:08.503Z,10420.00
2018-06-10T15:21:08.515Z,10304.00
2018-06-10T15:23:01.541Z,8936.00
2018-06-10T15:24:01.574Z,8172.00
2018-06-10T15:25:54.616Z,7316.00
2018-06-10T15:26:54.627Z,6968.00
2018-06-10T15:28:47.653Z,6008.00
2018-06-10T15:29:47.744Z,5676.00
2018-06-10T15:31:40.729Z,5520.00
2018-06-10T15:32:40.744Z,5588.00
2018-06-10T15:34:33.767Z,5496.00
2018-06-10T15:35:33.799Z,5576.00
2018-06-10T15:37:26.839Z,6140.00
2018-06-10T15:38:26.884Z,6840.00
2018-06-10T15:40:19.901Z,8132.00
2018-06-10T15:41:19.907Z,8064.00
2018-06-10T15:43:12.942Z,7740.00
2018-06-10T15:44:12.963Z,7796.00
2018-06-10T15:46:06.422Z,8144.00
2018-06-10T15:47:06.433Z,8148.00
2018-06-10T15:48:59.456Z,7000.00
2018-06-10T15:49:59.536Z,6356.00
2018-06-10T15:51:52.546Z,5828.00
2018-06-10T15:52:52.558Z,5704.00
2018-06-10T15:54:45.594Z,5760.00
2018-06-10T15:55:45.880Z,6080.00
2018-06-10T15:57:39.175Z,6528.00
2018-06-10T15:58:39.171Z,6992.00
2018-06-10T16:00:32.220Z,7960.00
2018-06-10T16:01:32.245Z,7740.00
2018-06-10T16:03:25.845Z,6932.00
2018-06-10T16:04:25.872Z,6804.00
2018-06-10T16:06:18.836Z,5972.00
2018-06-10T16:07:18.850Z,5876.00
2018-06-10T16:09:11.873Z,5628.00
2018-06-10T16:10:11.904Z,5540.00
2018-06-10T16:12:04.953Z,5740.00
2018-06-10T16:13:04.968Z,5860.00
2018-06-10T16:14:57.998Z,5596.00
2018-06-10T16:15:58.030Z,5556.00
2018-06-10T16:17:51.059Z,5240.00
2018-06-10T16:18:51.071Z,5232.00
2018-06-10T16:20:44.096Z,6012.00
2018-06-10T16:21:44.206Z,6792.00
2018-06-10T16:23:37.240Z,8140.00
2018-06-10T16:24:37.188Z,8168.00
2018-06-10T16:26:30.673Z,6776.00
2018-06-10T16:27:30.652Z,6232.00
2018-06-10T16:29:23.678Z,5504.00
2018-06-10T16:30:23.707Z,5520.00
2018-06-10T16:32:16.753Z,5764.00
2018-06-10T16:33:16.802Z,5760.00
2018-06-10T16:35:09.790Z,5712.00
2018-06-10T16:36:09.821Z,5624.00
2018-06-10T16:38:02.868Z,5520.00
2018-06-10T16:39:02.875Z,5508.00
2018-06-10T16:40:55.903Z,5616.00
2018-06-10T16:41:55.932Z,5696.00
2018-06-10T16:43:48.977Z,6096.00
2018-06-10T16:44:48.989Z,6472.00
2018-06-10T16:46:42.014Z,6912.00
2018-06-10T16:47:42.043Z,6780.00
2018-06-10T16:49:35.088Z,6520.00
2018-06-10T16:50:35.103Z,6952.00
2018-06-10T16:52:28.556Z,7756.00
2018-06-10T16:53:28.567Z,7856.00
2018-06-10T16:55:21.592Z,8200.00
2018-06-10T16:56:21.624Z,8528.00
2018-06-10T16:58:14.673Z,8548.00
2018-06-10T16:59:14.680Z,8224.00
2018-06-10T17:01:07.708Z,8032.00
2018-06-10T17:02:07.737Z,7672.00
2018-06-10T17:04:00.786Z,7216.00
2018-06-10T17:05:00.794Z,7052.00
2018-06-10T17:06:53.824Z,6028.00
2018-06-10T17:07:53.852Z,5616.00
2018-06-10T17:09:47.301Z,5328.00
2018-06-10T17:10:47.314Z,5312.00
2018-06-10T17:12:40.366Z,5916.00
2018-06-10T17:13:40.373Z,5876.00
2018-06-10T17:15:33.397Z,5020.00
2018-06-10T17:16:33.428Z,5028.00
2018-06-10T17:18:26.470Z,5060.00
2018-06-10T17:19:26.486Z,5100.00
2018-06-10T17:21:20.959Z,4776.00
2018-06-10T17:22:20.982Z,4360.00
2018-06-10T17:24:14.021Z,4064.00
2018-06-10T17:25:14.033Z,4288.00
2018-06-10T17:27:07.057Z,5132.00
2018-06-10T17:28:07.089Z,5172.00
2018-06-10T17:30:00.132Z,4828.00
2018-06-10T17:31:00.144Z,4900.00
2018-06-10T17:32:53.200Z,4476.00
2018-06-10T17:33:53.199Z,4216.00
2018-06-10T17:35:46.223Z,3860.00
2018-06-10T17:36:46.256Z,4060.00
2018-06-10T17:38:39.298Z,4952.00